Time;durP1;ratioP1;P1;durP2;ratioP2;P2;SDS_P1;SDS_P2;PMS_P1;PMS_P2;Temp;Humidity;BMP_temperature;BMP_pressure;BME280_temperature;BME280_humidity;BME280_pressure;Samples;Min_cycle;Max_cycle;Signal;HPM_P1;HPM_P2
2023/06/02 00:01:50;;;;;;;10.05;4.70;;;;;;;16.48;99.24;98354.75;4484119;32;20488;-67
2023/06/02 00:04:23;;;;;;;10.50;4.37;;;;;;;16.56;98.34;98353.81;4484146;31;20484;-67
2023/06/02 00:06:51;;;;;;;10.48;5.53;;;;;;;16.63;97.84;98360.03;4484018;31;20081;-67
2023/06/02 00:09:19;;;;;;;10.57;4.50;;;;;;;16.64;97.82;98354.53;4484075;32;20126;-67
2023/06/02 00:11:46;;;;;;;7.30;4.50;;;;;;;16.68;97.01;98353.16;4484052;31;20101;-67
2023/06/02 00:14:14;;;;;;;11.85;5.03;;;;;;;16.67;97.66;98353.38;4468942;32;20530;-67
2023/06/02 00:16:44;;;;;;;8.02;4.18;;;;;;;16.74;96.35;98350.78;4482424;32;20092;-67
2023/06/02 00:19:13;;;;;;;8.88;5.10;;;;;;;16.70;97.98;98350.34;4486209;31;20147;-67
2023/06/02 00:21:41;;;;;;;8.95;4.65;;;;;;;16.63;98.97;98352.09;4486131;31;20092;-67
2023/06/02 00:24:09;;;;;;;14.98;4.43;;;;;;;16.54;99.49;98353.19;4486161;31;20154;-67
2023/06/02 00:26:37;;;;;;;8.93;4.97;;;;;;;16.46;99.80;98352.28;4486141;31;20151;-67
2023/06/02 00:29:05;;;;;;;5.80;4.10;;;;;;;16.39;100.00;98346.09;4486368;31;20088;-67
2023/06/02 00:31:32;;;;;;;5.22;3.90;;;;;;;16.33;100.00;98344.19;4486039;31;20099;-67
2023/06/02 00:33:59;;;;;;;8.90;4.18;;;;;;;16.29;100.00;98348.22;4485975;31;20505;-67
2023/06/02 00:36:27;;;;;;;8.35;4.20;;;;;;;16.26;100.00;98356.50;4485974;32;20529;-67
2023/06/02 00:38:54;;;;;;;9.02;4.43;;;;;;;16.17;100.00;98353.16;4485927;32;20108;-67
2023/06/02 00:41:21;;;;;;;11.73;3.87;;;;;;;16.10;100.00;98350.41;4485752;31;20482;-67
2023/06/02 00:43:49;;;;;;;6.72;4.55;;;;;;;16.07;100.00;98342.84;4485875;31;20096;-67
2023/06/02 00:46:16;;;;;;;7.15;4.35;;;;;;;16.01;100.00;98351.50;4486066;32;20144;-67
2023/06/02 00:48:43;;;;;;;6.78;4.62;;;;;;;15.95;100.00;98352.25;4485912;31;20100;-67
2023/06/02 00:51:11;;;;;;;10.23;5.47;;;;;;;15.84;100.00;98353.53;4485948;31;20492;-67
2023/06/02 00:53:38;;;;;;;9.77;4.87;;;;;;;15.70;100.00;98351.62;4484553;32;20126;-67
2023/06/02 00:56:06;;;;;;;7.65;5.07;;;;;;;15.66;100.00;98350.38;4485837;31;20115;-67
2023/06/02 00:58:37;;;;;;;8.20;4.78;;;;;;;15.60;100.00;98352.72;4484533;32;20180;-67
2023/06/02 01:01:08;;;;;;;12.82;4.70;;;;;;;15.53;100.00;98340.41;4485705;31;20519;-67
2023/06/02 01:03:47;;;;;;;6.40;4.45;;;;;;;15.47;100.00;98349.06;4485847;31;20092;-67
2023/06/02 01:06:23;;;;;;;6.47;4.78;;;;;;;15.40;100.00;98341.03;4485794;31;20084;-67
2023/06/02 01:08:51;;;;;;;6.35;4.55;;;;;;;15.34;100.00;98345.22;4485809;31;20471;-67
2023/06/02 01:11:18;;;;;;;9.90;5.15;;;;;;;15.29;100.00;98349.38;4485723;32;20567;-67
2023/06/02 01:13:48;;;;;;;10.57;4.95;;;;;;;15.23;100.00;98348.25;4447787;32;20097;-67
2023/06/02 01:16:15;;;;;;;7.03;4.57;;;;;;;15.19;100.00;98347.00;4473693;32;20151;-67
2023/06/02 01:18:45;;;;;;;7.47;4.65;;;;;;;15.13;100.00;98345.06;4484399;32;20100;-67
2023/06/02 01:21:23;;;;;;;7.97;4.70;;;;;;;15.05;100.00;98344.12;4484471;32;20096;-67
2023/06/02 01:23:57;;;;;;;7.40;4.80;;;;;;;14.99;100.00;98350.09;4485696;32;20154;-67
2023/06/02 01:26:28;;;;;;;7.70;5.15;;;;;;;14.95;100.00;98338.25;4484868;31;20434;-67
2023/06/02 01:28:56;;;;;;;10.43;4.97;;;;;;;14.90;100.00;98340.59;4485612;32;20188;-67
2023/06/02 01:31:26;;;;;;;8.68;4.93;;;;;;;14.86;100.00;98334.03;4485652;32;20096;-67
2023/06/02 01:34:06;;;;;;;10.18;6.90;;;;;;;14.83;100.00;98334.38;4485767;31;20152;-67
2023/06/02 01:36:36;;;;;;;11.12;4.85;;;;;;;14.77;100.00;98341.16;4485704;32;20093;-67
2023/06/02 01:39:05;;;;;;;8.20;4.72;;;;;;;14.72;100.00;98344.34;4484378;32;20109;-67
2023/06/02 01:41:35;;;;;;;7.15;4.87;;;;;;;14.69;100.00;98334.13;4485612;31;20110;-67
2023/06/02 01:44:02;;;;;;;10.38;4.72;;;;;;;14.81;100.00;98346.94;4484444;32;20088;-67
2023/06/02 01:46:30;;;;;;;9.93;5.40;;;;;;;14.88;100.00;98342.59;4484189;32;20454;-67
2023/06/02 01:48:58;;;;;;;7.28;4.85;;;;;;;14.94;100.00;98336.59;4485595;32;20115;-67
2023/06/02 01:51:26;;;;;;;7.12;4.80;;;;;;;15.02;100.00;98336.56;4485482;32;20141;-67
2023/06/02 01:53:53;;;;;;;7.25;4.53;;;;;;;15.10;100.00;98334.88;4485618;32;20131;-67
2023/06/02 01:56:20;;;;;;;8.95;5.05;;;;;;;15.12;100.00;98338.94;4485335;31;20093;-67
2023/06/02 01:58:52;;;;;;;12.65;4.62;;;;;;;15.15;100.00;98340.41;4485485;32;20120;-67
2023/06/02 02:01:21;;;;;;;7.40;4.43;;;;;;;15.19;100.00;98334.59;4485561;31;20096;-67
2023/06/02 02:03:50;;;;;;;12.55;4.43;;;;;;;15.19;100.00;98336.44;4485518;31;20099;-67
2023/06/02 02:06:17;;;;;;;7.03;4.93;;;;;;;15.22;100.00;98338.72;4485398;31;20088;-67
2023/06/02 02:08:44;;;;;;;7.15;4.95;;;;;;;15.27;100.00;98331.87;4485285;32;20134;-67
2023/06/02 02:11:11;;;;;;;11.70;5.43;;;;;;;15.29;100.00;98331.75;4485601;32;20088;-67
2023/06/02 02:13:37;;;;;;;10.00;5.12;;;;;;;15.30;100.00;98340.47;4474137;31;20181;-67
2023/06/02 02:16:05;;;;;;;18.37;5.47;;;;;;;15.28;100.00;98335.38;4478150;32;20632;-67
2023/06/02 02:18:32;;;;;;;6.95;4.62;;;;;;;15.28;100.00;98335.38;4485126;31;20080;-67
2023/06/02 02:20:59;;;;;;;7.57;4.62;;;;;;;15.27;100.00;98326.63;4485240;32;20516;-67
2023/06/02 02:23:27;;;;;;;7.82;4.85;;;;;;;15.26;100.00;98326.78;4485452;32;20380;-67
2023/06/02 02:25:54;;;;;;;5.45;4.07;;;;;;;15.24;100.00;98320.88;4485148;31;20096;-67
2023/06/02 02:28:22;;;;;;;8.75;4.62;;;;;;;15.27;100.00;98318.69;4483741;32;20109;-67
2023/06/02 02:30:49;;;;;;;10.88;4.85;;;;;;;15.30;100.00;98314.06;4485216;31;20122;-67
2023/06/02 02:33:16;;;;;;;12.75;4.95;;;;;;;15.32;100.00;98318.19;4485456;31;20156;-67
2023/06/02 02:35:44;;;;;;;10.57;4.95;;;;;;;15.39;100.00;98323.56;4485160;31;20415;-67
2023/06/02 02:38:12;;;;;;;6.97;4.68;;;;;;;15.41;100.00;98322.38;4484835;31;20167;-67
2023/06/02 02:40:39;;;;;;;9.02;4.22;;;;;;;15.42;100.00;98324.00;4485195;32;20134;-67
2023/06/02 02:43:06;;;;;;;8.57;4.45;;;;;;;15.48;100.00;98321.66;4485253;32;20073;-67
2023/06/02 02:45:33;;;;;;;6.60;4.65;;;;;;;15.46;100.00;98321.00;4485455;32;20513;-67
2023/06/02 02:48:01;;;;;;;7.40;4.50;;;;;;;15.55;100.00;98326.06;4485094;32;20498;-67
2023/06/02 02:50:28;;;;;;;7.93;4.43;;;;;;;15.53;100.00;98324.56;4485485;32;20154;-67
2023/06/02 02:52:56;;;;;;;9.48;4.95;;;;;;;15.64;100.00;98320.66;4485250;32;20139;-67
2023/06/02 02:55:23;;;;;;;9.57;5.12;;;;;;;15.72;100.00;98318.78;4485205;32;20153;-67
2023/06/02 02:57:50;;;;;;;6.05;4.50;;;;;;;15.81;100.00;98329.31;4484960;32;20513;-67
2023/06/02 03:00:18;;;;;;;9.45;5.00;;;;;;;15.82;100.00;98328.28;4484692;32;20092;-67
2023/06/02 03:02:45;;;;;;;7.22;4.50;;;;;;;15.92;100.00;98320.91;4484980;31;20123;-67
2023/06/02 03:05:13;;;;;;;6.40;4.72;;;;;;;15.91;100.00;98314.81;4485024;32;20422;-67
2023/06/02 03:07:44;;;;;;;8.23;5.15;;;;;;;15.99;100.00;98311.25;4484917;31;20122;-67
2023/06/02 03:10:11;;;;;;;7.75;5.12;;;;;;;16.00;100.00;98312.06;4485338;31;20088;-67
2023/06/02 03:12:39;;;;;;;7.85;4.72;;;;;;;16.04;100.00;98319.44;4480243;32;20144;-67
2023/06/02 03:15:07;;;;;;;8.38;4.85;;;;;;;16.09;100.00;98314.44;4471922;32;20127;-67
2023/06/02 03:17:37;;;;;;;10.63;5.15;;;;;;;16.19;100.00;98318.63;4484821;32;20605;-67
2023/06/02 03:20:08;;;;;;;8.55;4.82;;;;;;;16.29;100.00;98314.69;4484750;31;20476;-67
2023/06/02 03:22:37;;;;;;;9.48;4.85;;;;;;;16.45;100.00;98313.62;4485146;31;20076;-67
2023/06/02 03:25:05;;;;;;;11.52;4.95;;;;;;;16.62;100.00;98308.97;4484811;31;20771;-67
2023/06/02 03:27:33;;;;;;;14.77;5.72;;;;;;;16.79;100.00;98308.69;4484781;31;20104;-67
2023/06/02 03:30:02;;;;;;;8.23;4.82;;;;;;;16.94;100.00;98312.16;4484915;32;20096;-67
2023/06/02 03:32:30;;;;;;;7.10;4.95;;;;;;;17.02;100.00;98312.00;4484889;31;20088;-67
2023/06/02 03:34:57;;;;;;;6.07;4.50;;;;;;;17.15;100.00;98318.44;4484939;31;20502;-67
2023/06/02 03:37:25;;;;;;;7.15;4.53;;;;;;;17.25;100.00;98318.94;4484761;32;20088;-67
2023/06/02 03:39:52;;;;;;;9.43;4.60;;;;;;;17.34;100.00;98319.63;4484585;32;20617;-67
2023/06/02 03:42:19;;;;;;;8.38;4.75;;;;;;;17.42;100.00;98319.47;4484763;32;20421;-67
2023/06/02 03:44:47;;;;;;;7.05;4.55;;;;;;;17.48;100.00;98326.63;4484605;32;20495;-67
2023/06/02 03:47:15;;;;;;;9.98;5.97;;;;;;;17.56;100.00;98326.50;4484782;32;20164;-67
2023/06/02 03:49:42;;;;;;;7.65;5.10;;;;;;;17.63;100.00;98326.53;4484382;31;20133;-67
2023/06/02 03:52:10;;;;;;;7.35;4.95;;;;;;;17.78;100.00;98326.44;4486726;32;20175;-67
2023/06/02 03:54:37;;;;;;;7.12;4.80;;;;;;;17.82;100.00;98332.16;4486496;32;20120;-67
2023/06/02 03:57:04;;;;;;;8.20;5.03;;;;;;;17.90;100.00;98330.19;4486776;31;20126;-67
2023/06/02 03:59:33;;;;;;;7.85;5.10;;;;;;;18.03;100.00;98326.81;4486349;31;20167;-67
2023/06/02 04:02:00;;;;;;;11.35;7.12;;;;;;;18.09;100.00;98335.81;4486189;31;20080;-68
2023/06/02 04:04:27;;;;;;;7.97;4.90;;;;;;;18.21;100.00;98328.94;4486496;31;20123;-67
2023/06/02 04:06:55;;;;;;;10.68;4.95;;;;;;;18.34;100.00;98330.03;4473028;32;20502;-67
2023/06/02 04:09:22;;;;;;;9.23;4.55;;;;;;;18.49;100.00;98336.00;4469530;32;20131;-65
2023/06/02 04:11:51;;;;;;;9.00;5.20;;;;;;;18.57;100.00;98327.03;4470360;32;20438;-66
2023/06/02 04:14:19;;;;;;;11.80;5.70;;;;;;;18.71;100.00;98326.06;4457471;32;20120;-66
2023/06/02 04:16:47;;;;;;;6.57;4.50;;;;;;;18.84;99.88;98324.44;4455831;32;20769;-65
2023/06/02 04:19:14;;;;;;;6.78;4.78;;;;;;;18.99;99.47;98324.31;4454816;32;20114;-65
2023/06/02 04:21:42;;;;;;;8.98;5.20;;;;;;;19.12;99.56;98332.25;4462604;32;20149;-67
2023/06/02 04:24:09;;;;;;;8.10;5.22;;;;;;;19.27;98.67;98330.25;4469183;32;20101;-66
2023/06/02 04:26:37;;;;;;;13.18;5.30;;;;;;;19.48;98.35;98331.84;4466929;32;20399;-66
2023/06/02 04:29:04;;;;;;;8.57;5.22;;;;;;;19.63;97.40;98334.28;4459019;32;20143;-67
2023/06/02 04:31:58;;;;;;;8.77;4.97;;;;;;;19.75;97.66;98329.19;4470268;32;20084;-67
2023/06/02 04:34:25;;;;;;;8.45;5.22;;;;;;;19.89;95.52;98324.66;4458920;32;20097;-67
2023/06/02 04:36:53;;;;;;;7.50;5.20;;;;;;;20.01;94.36;98328.31;4469792;32;20425;-67
2023/06/02 04:39:20;;;;;;;9.93;5.28;;;;;;;20.03;94.91;98326.28;4470274;32;20096;-67
2023/06/02 04:41:49;;;;;;;9.27;4.95;;;;;;;20.16;95.23;98324.59;4470170;32;20163;-67
2023/06/02 04:44:19;;;;;;;8.43;4.90;;;;;;;20.32;95.00;98329.47;4469270;32;20176;-67
2023/06/02 04:46:46;;;;;;;9.25;5.18;;;;;;;20.53;92.00;98325.69;4469809;32;20097;-66
2023/06/02 04:49:14;;;;;;;9.10;5.60;;;;;;;20.77;91.55;98327.84;4461589;32;20108;-67
2023/06/02 04:51:41;;;;;;;8.68;5.07;;;;;;;20.89;90.43;98328.78;4463905;32;20553;-67
2023/06/02 04:54:09;;;;;;;7.53;5.90;;;;;;;21.04;87.71;98331.13;4454949;32;20100;-65
2023/06/02 04:56:37;;;;;;;7.18;5.30;;;;;;;21.11;86.16;98326.59;4465830;32;20127;-66
2023/06/02 04:59:05;;;;;;;11.20;5.37;;;;;;;21.30;84.83;98331.97;4469641;32;20092;-66
2023/06/02 05:01:33;;;;;;;6.82;4.93;;;;;;;21.70;83.73;98340.47;4466780;32;20111;-67
2023/06/02 05:04:03;;;;;;;10.18;5.43;;;;;;;21.95;81.52;98332.44;4464868;32;20135;-67
2023/06/02 05:06:30;;;;;;;7.53;5.03;;;;;;;22.21;78.56;98341.19;4465370;32;20100;-67
2023/06/02 05:08:57;;;;;;;9.02;5.37;;;;;;;22.36;77.16;98348.00;4463612;32;20131;-69
2023/06/02 05:11:25;;;;;;;6.68;4.72;;;;;;;22.40;77.67;98342.00;4466161;32;20092;-68
2023/06/02 05:13:55;;;;;;;8.55;5.72;;;;;;;22.58;77.75;98343.81;4465644;32;20394;-68
2023/06/02 05:16:23;;;;;;;7.60;4.90;;;;;;;22.63;73.64;98343.16;4471214;32;20505;-68
2023/06/02 05:18:51;;;;;;;8.65;4.80;;;;;;;22.86;75.29;98347.75;4461778;32;21936;-68
2023/06/02 05:21:19;;;;;;;6.35;4.60;;;;;;;22.77;75.94;98339.25;4465449;32;20112;-68
2023/06/02 05:23:46;;;;;;;11.52;5.32;;;;;;;22.83;75.30;98341.03;4466119;32;20100;-68
2023/06/02 05:26:16;;;;;;;6.10;4.60;;;;;;;22.90;74.66;98340.13;4466695;32;20166;-68
2023/06/02 05:28:43;;;;;;;6.57;4.75;;;;;;;22.99;73.16;98342.22;4466211;32;20160;-69
2023/06/02 05:31:11;;;;;;;6.95;4.97;;;;;;;23.01;73.75;98342.81;4466710;32;20153;-68
2023/06/02 05:33:39;;;;;;;6.97;4.70;;;;;;;23.14;72.75;98341.03;4466867;32;20127;-68
2023/06/02 05:36:07;;;;;;;10.43;5.37;;;;;;;23.27;72.04;98348.84;4465916;32;20088;-69
2023/06/02 05:38:34;;;;;;;14.70;4.85;;;;;;;23.28;70.50;98344.28;4464863;32;20130;-67
2023/06/02 05:41:02;;;;;;;12.15;5.32;;;;;;;23.26;69.86;98344.53;4461855;32;20644;-67
2023/06/02 05:43:30;;;;;;;8.00;4.70;;;;;;;23.44;71.16;98338.28;4465150;32;20525;-67
2023/06/02 05:45:57;;;;;;;5.68;4.47;;;;;;;23.38;68.40;98336.53;4465631;32;20131;-66
2023/06/02 05:48:25;;;;;;;7.22;4.80;;;;;;;23.12;69.54;98338.59;4464787;32;20458;-67
2023/06/02 05:50:53;;;;;;;10.50;5.40;;;;;;;23.07;72.49;98342.94;4465088;32;20164;-67
2023/06/02 05:53:21;;;;;;;9.85;4.60;;;;;;;23.07;72.40;98349.09;4466652;32;20151;-67
2023/06/02 05:55:49;;;;;;;8.57;4.80;;;;;;;23.22;68.96;98351.38;4461608;32;20098;-67
2023/06/02 05:58:19;;;;;;;6.80;5.00;;;;;;;23.20;70.06;98348.91;4463119;32;20160;-67
2023/06/02 06:00:46;;;;;;;13.73;5.50;;;;;;;23.18;71.49;98345.69;4462975;32;20157;-67
2023/06/02 06:03:15;;;;;;;6.65;4.75;;;;;;;23.13;69.28;98347.41;4453559;32;20294;-67
2023/06/02 06:05:44;;;;;;;6.60;4.85;;;;;;;23.07;71.28;98346.41;4460742;32;20101;-68
2023/06/02 06:08:12;;;;;;;9.20;5.40;;;;;;;23.04;71.44;98349.53;4462047;32;20435;-68
2023/06/02 06:10:42;;;;;;;8.32;5.22;;;;;;;22.82;71.73;98355.41;4457401;32;20130;-67
2023/06/02 06:13:10;;;;;;;5.95;4.80;;;;;;;22.82;73.29;98346.59;4460748;32;20101;-68
2023/06/02 06:15:37;;;;;;;10.35;4.97;;;;;;;22.94;69.89;98344.78;4460159;32;20422;-68
2023/06/02 06:18:05;;;;;;;40.28;11.23;;;;;;;22.97;69.92;98349.66;4457493;32;20831;-68
2023/06/02 06:20:32;;;;;;;34.45;10.30;;;;;;;23.03;71.83;98345.28;4460150;32;20126;-67
2023/06/02 06:22:59;;;;;;;37.97;10.38;;;;;;;22.96;71.95;98344.53;4458970;32;20144;-67
2023/06/02 06:25:27;;;;;;;11.40;5.12;;;;;;;22.84;72.70;98352.50;4462986;32;20123;-68
2023/06/02 06:27:54;;;;;;;8.23;5.10;;;;;;;22.77;73.91;98349.94;4462337;32;20161;-68
2023/06/02 06:30:22;;;;;;;11.07;6.32;;;;;;;22.75;74.63;98359.22;4458427;32;20135;-67
2023/06/02 06:32:50;;;;;;;6.20;4.93;;;;;;;23.01;74.79;98350.00;4455752;32;20104;-67
2023/06/02 06:35:18;;;;;;;43.95;11.38;;;;;;;23.00;75.21;98356.41;4458746;32;20128;-67
2023/06/02 06:37:46;;;;;;;6.90;5.35;;;;;;;23.23;75.42;98360.22;4458270;32;20117;-67
2023/06/02 06:40:14;;;;;;;11.73;5.82;;;;;;;23.33;74.58;98371.13;4460083;32;20608;-67
2023/06/02 06:42:42;;;;;;;10.30;5.25;;;;;;;23.17;72.65;98360.06;4460647;32;20521;-67
2023/06/02 06:45:10;;;;;;;9.40;5.32;;;;;;;23.09;75.80;98365.75;4461650;32;20147;-68
2023/06/02 06:47:38;;;;;;;13.60;5.82;;;;;;;22.91;74.42;98371.09;4462832;32;20466;-67
2023/06/02 06:50:07;;;;;;;7.20;5.30;;;;;;;22.81;76.49;98375.13;4459618;32;20112;-67
2023/06/02 06:52:34;;;;;;;7.37;5.53;;;;;;;22.61;78.27;98377.28;4459095;32;20097;-67
2023/06/02 06:55:02;;;;;;;12.20;6.53;;;;;;;22.77;78.46;98376.66;4462121;32;20161;-65
2023/06/02 06:57:29;;;;;;;10.20;5.90;;;;;;;22.84;77.35;98384.56;4461694;32;20093;-68
2023/06/02 06:59:56;;;;;;;10.55;5.97;;;;;;;23.11;81.38;98371.69;4457273;32;20117;-68
2023/06/02 07:02:24;;;;;;;9.15;5.78;;;;;;;23.33;76.89;98380.00;4460099;32;20163;-67
2023/06/02 07:04:51;;;;;;;7.40;5.12;;;;;;;23.57;76.67;98377.34;4458436;32;20159;-66
2023/06/02 07:07:19;;;;;;;12.32;6.53;;;;;;;23.35;72.09;98382.44;4458503;32;20116;-65
2023/06/02 07:09:46;;;;;;;9.02;6.32;;;;;;;23.45;74.24;98379.19;4455151;32;20125;-68
2023/06/02 07:12:13;;;;;;;10.65;6.50;;;;;;;23.74;76.49;98378.28;4463225;32;20163;-68
2023/06/02 07:14:40;;;;;;;9.60;6.60;;;;;;;23.78;75.44;98375.94;4459022;32;20592;-66
2023/06/02 07:17:08;;;;;;;7.95;5.70;;;;;;;23.75;72.86;98371.06;4457530;32;20144;-67
2023/06/02 07:19:35;;;;;;;17.48;6.30;;;;;;;23.70;73.16;98376.31;4457713;32;20177;-69
2023/06/02 07:22:04;;;;;;;8.00;6.25;;;;;;;23.40;74.11;98374.53;4463249;32;20239;-68
2023/06/02 07:24:32;;;;;;;17.77;6.40;;;;;;;23.77;72.56;98370.84;4459726;32;20124;-68
2023/06/02 07:27:01;;;;;;;8.80;6.25;;;;;;;24.01;73.78;98375.19;4461385;32;20106;-68
2023/06/02 07:29:29;;;;;;;8.60;5.82;;;;;;;24.21;72.06;98374.78;4459927;32;20122;-68
2023/06/02 07:31:57;;;;;;;8.73;5.70;;;;;;;24.35;71.43;98367.31;4461231;32;20112;-68
2023/06/02 07:34:24;;;;;;;10.00;5.82;;;;;;;24.40;68.51;98372.75;4459493;32;20153;-67
2023/06/02 07:36:52;;;;;;;7.97;6.35;;;;;;;24.15;66.22;98365.03;4453066;32;20108;-68
2023/06/02 07:39:22;;;;;;;11.80;5.90;;;;;;;23.97;68.99;98363.31;4461370;32;20147;-68
2023/06/02 07:41:51;;;;;;;11.77;5.72;;;;;;;24.17;70.42;98365.59;4458963;32;20438;-68
2023/06/02 07:44:18;;;;;;;12.40;7.50;;;;;;;24.55;69.69;98364.22;4459728;32;20651;-68
2023/06/02 07:46:47;;;;;;;10.23;5.65;;;;;;;24.66;65.77;98364.44;4460589;32;20246;-68
2023/06/02 07:49:14;;;;;;;11.90;6.35;;;;;;;24.76;67.74;98367.31;4461787;32;20131;-68
2023/06/02 07:51:41;;;;;;;9.80;6.55;;;;;;;24.71;66.28;98369.87;4458047;32;20112;-68
2023/06/02 07:54:09;;;;;;;12.07;6.10;;;;;;;25.02;64.97;98365.13;4461489;32;20096;-68
2023/06/02 07:56:37;;;;;;;13.32;6.78;;;;;;;25.00;65.09;98364.53;4459315;32;20164;-67
2023/06/02 07:59:04;;;;;;;8.77;5.90;;;;;;;25.20;64.63;98361.41;4460656;32;20158;-68
2023/06/02 08:01:32;;;;;;;13.20;6.68;;;;;;;25.16;62.45;98371.78;4456661;32;20129;-68
2023/06/02 08:03:59;;;;;;;13.07;7.75;;;;;;;25.18;63.50;98372.38;4464050;32;20146;-68
2023/06/02 08:06:27;;;;;;;8.40;5.30;;;;;;;25.35;60.92;98361.69;4461790;32;20132;-68
2023/06/02 08:08:54;;;;;;;7.75;5.68;;;;;;;25.50;59.83;98364.59;4458239;32;20088;-67
2023/06/02 08:11:22;;;;;;;8.98;5.18;;;;;;;25.58;58.98;98360.69;4456549;32;20466;-67
2023/06/02 08:13:50;;;;;;;13.35;6.00;;;;;;;25.43;62.18;98365.81;4456981;32;20133;-67
2023/06/02 08:16:17;;;;;;;9.07;5.65;;;;;;;25.21;58.17;98366.53;4459244;32;20108;-68
2023/06/02 08:18:48;;;;;;;10.38;5.97;;;;;;;25.20;59.90;98364.09;4460293;32;20159;-67
2023/06/02 08:21:15;;;;;;;14.40;6.95;;;;;;;25.10;56.67;98365.53;4457983;32;20096;-68
2023/06/02 08:23:43;;;;;;;13.38;5.50;;;;;;;25.14;57.80;98363.97;4461522;32;20109;-67
2023/06/02 08:26:10;;;;;;;12.48;5.60;;;;;;;25.24;56.75;98362.53;4459408;32;21963;-68
2023/06/02 08:28:38;;;;;;;10.32;5.93;;;;;;;25.46;56.73;98368.00;4455924;32;20131;-68
2023/06/02 08:31:06;;;;;;;15.25;5.87;;;;;;;25.56;56.31;98362.81;4456593;32;20105;-68
2023/06/02 08:33:35;;;;;;;7.30;5.00;;;;;;;25.58;59.47;98365.25;4456608;32;20096;-67
2023/06/02 08:36:02;;;;;;;12.60;5.30;;;;;;;25.70;56.08;98367.84;4453933;32;20163;-67
2023/06/02 08:38:33;;;;;;;9.82;5.07;;;;;;;25.61;56.78;98364.75;4458410;32;20583;-67
2023/06/02 08:41:01;;;;;;;12.30;5.32;;;;;;;25.54;61.29;98361.44;4456801;32;20113;-68
2023/06/02 08:43:28;;;;;;;9.82;5.15;;;;;;;25.45;57.87;98369.06;4459236;32;20097;-68
2023/06/02 08:45:57;;;;;;;9.90;5.47;;;;;;;25.55;55.33;98371.91;4460290;32;20132;-68
2023/06/02 08:48:25;;;;;;;7.72;4.28;;;;;;;25.72;53.61;98371.91;4455382;32;20092;-68
2023/06/02 08:50:53;;;;;;;7.65;4.30;;;;;;;25.63;53.30;98357.28;4456727;32;20155;-68
2023/06/02 08:53:23;;;;;;;5.85;4.53;;;;;;;25.45;51.70;98361.00;4462715;32;20128;-68
2023/06/02 08:55:51;;;;;;;14.35;5.25;;;;;;;25.74;54.62;98363.59;4458476;32;20133;-68
2023/06/02 08:58:18;;;;;;;7.87;4.85;;;;;;;25.82;52.39;98365.88;4456366;32;20119;-67
2023/06/02 09:00:46;;;;;;;7.62;5.30;;;;;;;25.65;54.04;98350.62;4455820;32;20109;-68
2023/06/02 09:03:15;;;;;;;10.02;5.15;;;;;;;25.20;54.79;98350.69;4461647;32;20108;-67
2023/06/02 09:05:45;;;;;;;5.57;4.50;;;;;;;25.02;56.73;98351.72;4457682;32;20085;-68
2023/06/02 09:08:14;;;;;;;8.25;4.70;;;;;;;24.89;57.87;98344.78;4460861;32;20167;-68
2023/06/02 09:10:42;;;;;;;7.50;4.85;;;;;;;25.13;58.31;98337.41;4460919;32;20138;-68
2023/06/02 09:13:10;;;;;;;5.93;4.53;;;;;;;25.65;60.12;98339.87;4459913;32;20113;-68
2023/06/02 09:15:58;;;;;;;8.88;4.82;;;;;;;26.00;55.71;98338.78;4458767;32;20100;-68
2023/06/02 09:18:26;;;;;;;8.98;4.32;;;;;;;26.46;53.33;98333.16;4461200;32;20084;-68
2023/06/02 09:20:54;;;;;;;7.45;4.95;;;;;;;26.97;50.54;98332.91;4461884;32;20466;-68
2023/06/02 09:23:21;;;;;;;8.38;5.03;;;;;;;26.71;50.12;98329.97;4459575;32;20262;-68
2023/06/02 09:25:48;;;;;;;9.00;5.10;;;;;;;26.22;50.54;98327.22;4461080;32;20112;-68
2023/06/02 09:28:16;;;;;;;9.85;5.22;;;;;;;26.20;52.53;98329.38;4461167;32;20507;-68
2023/06/02 09:30:44;;;;;;;8.85;4.78;;;;;;;26.15;54.10;98332.81;4461744;32;20108;-68
2023/06/02 09:33:11;;;;;;;6.30;4.95;;;;;;;26.45;53.27;98330.72;4461294;32;20176;-68
2023/06/02 09:35:40;;;;;;;9.07;4.28;;;;;;;26.80;51.54;98338.38;4460745;32;20101;-68
2023/06/02 09:38:15;;;;;;;6.87;4.80;;;;;;;27.26;49.21;98332.59;4459688;32;20587;-68
2023/06/02 09:40:44;;;;;;;5.32;4.00;;;;;;;27.66;50.89;98328.62;4461823;32;20104;-68
2023/06/02 09:43:12;;;;;;;6.87;4.50;;;;;;;28.16;44.05;98326.47;4460900;32;20115;-68
2023/06/02 09:45:48;;;;;;;6.20;4.45;;;;;;;28.34;46.52;98319.81;4460355;32;20486;-67
2023/06/02 09:48:20;;;;;;;7.20;4.75;;;;;;;28.22;47.46;98319.22;4459414;32;20184;-68
2023/06/02 09:50:47;;;;;;;10.40;4.30;;;;;;;27.20;48.84;98309.44;4456085;32;20100;-68
2023/06/02 09:53:17;;;;;;;8.00;4.45;;;;;;;27.06;50.61;98306.38;4457687;32;20120;-66
2023/06/02 09:55:47;;;;;;;6.47;4.95;;;;;;;27.14;52.92;98300.50;4459491;32;20105;-66
2023/06/02 09:58:15;;;;;;;11.65;4.87;;;;;;;27.16;52.59;98301.06;4458525;32;20093;-69
2023/06/02 10:00:42;;;;;;;10.77;5.05;;;;;;;27.47;48.92;98304.00;4455124;32;80043;-69
2023/06/02 10:03:10;;;;;;;8.70;4.20;;;;;;;27.98;50.53;98308.91;4462552;32;20158;-68
2023/06/02 10:05:46;;;;;;;7.20;3.95;;;;;;;28.39;42.15;98306.38;4463404;32;20470;-69
2023/06/02 10:08:30;;;;;;;7.35;4.82;;;;;;;28.26;41.67;98320.31;4460414;32;20108;-66
2023/06/02 10:11:06;;;;;;;8.02;4.65;;;;;;;27.43;45.63;98322.56;4464400;32;20127;-68
2023/06/02 10:13:51;;;;;;;5.50;5.00;;;;;;;27.12;48.39;98320.66;4462216;32;20133;-70
2023/06/02 10:16:42;;;;;;;6.50;4.68;;;;;;;26.86;51.57;98318.56;4464840;32;20508;-68
2023/06/02 10:19:32;;;;;;;5.65;4.65;;;;;;;26.33;53.44;98320.09;4463951;32;20101;-68
2023/06/02 10:22:27;;;;;;;8.18;4.62;;;;;;;25.97;56.01;98315.09;4468034;32;20143;-69
2023/06/02 10:25:21;;;;;;;10.38;4.70;;;;;;;25.81;55.98;98316.75;4462410;32;20159;-69
2023/06/02 10:27:49;;;;;;;8.98;5.40;;;;;;;25.03;58.75;98313.94;4464482;32;20108;-68
2023/06/02 10:30:20;;;;;;;10.48;5.22;;;;;;;24.53;60.81;98317.31;4462185;32;20108;-67
2023/06/02 10:32:49;;;;;;;13.30;5.05;;;;;;;24.21;63.64;98317.75;4465117;32;20084;-67
2023/06/02 10:35:17;;;;;;;41.35;5.87;;;;;;;24.69;62.05;98310.41;4463367;32;20812;-68
2023/06/02 10:37:45;;;;;;;12.15;5.20;;;;;;;25.35;60.08;98305.38;4463085;32;20415;-68
2023/06/02 10:40:14;;;;;;;78.57;8.27;;;;;;;25.78;55.31;98303.81;4456782;32;20199;-67
2023/06/02 10:43:12;;;;;;;8.07;5.00;;;;;;;26.30;55.86;98294.59;4466951;32;20156;-67
2023/06/02 10:45:41;;;;;;;12.35;4.85;;;;;;;26.36;52.37;98290.88;4401276;32;20177;-67
2023/06/02 10:48:35;;;;;;;8.20;4.50;;;;;;;26.45;51.87;98287.75;4397864;32;20109;-67
2023/06/02 10:51:03;;;;;;;8.75;4.87;;;;;;;26.54;50.92;98296.97;4393374;32;20164;-67
2023/06/02 10:53:32;;;;;;;7.80;4.78;;;;;;;27.02;49.89;98303.38;4393599;32;20113;-67
2023/06/02 10:56:40;;;;;;;7.55;4.80;;;;;;;27.31;49.84;98316.50;4392664;32;20114;-68
2023/06/02 10:59:09;;;;;;;7.20;4.78;;;;;;;27.02;47.59;98334.81;4395416;32;20132;-67
2023/06/02 11:01:51;;;;;;;8.00;4.07;;;;;;;26.74;45.68;98329.47;4398062;32;20142;-67
2023/06/02 11:04:32;;;;;;;7.00;3.55;;;;;;;26.70;45.88;98328.34;4397800;32;20158;-67
2023/06/02 11:07:23;;;;;;;4.55;3.40;;;;;;;27.13;46.17;98311.53;4396681;32;20118;-67
2023/06/02 11:09:54;;;;;;;6.37;3.70;;;;;;;28.03;50.90;98313.50;4396540;32;20130;-67
2023/06/02 11:12:50;;;;;;;7.87;3.58;;;;;;;28.30;48.71;98310.66;4399568;32;20185;-67
2023/06/02 11:15:20;;;;;;;6.43;3.95;;;;;;;28.50;49.53;98312.59;4400786;32;20225;-67
2023/06/02 11:17:48;;;;;;;6.25;4.10;;;;;;;28.08;48.82;98311.63;4395716;32;20625;-67
2023/06/02 11:20:17;;;;;;;6.95;4.00;;;;;;;27.46;52.37;98325.78;4399354;32;20110;-67
2023/06/02 11:22:47;;;;;;;8.18;4.22;;;;;;;27.74;52.50;98330.81;4431719;32;20144;-67
2023/06/02 11:25:16;;;;;;;7.22;4.30;;;;;;;28.20;46.99;98329.47;4463603;32;20108;-67
2023/06/02 11:27:45;;;;;;;7.22;3.62;;;;;;;28.57;44.68;98333.88;4462354;32;20459;-67
2023/06/02 11:30:17;;;;;;;16.83;4.07;;;;;;;27.04;48.19;98343.44;4463996;32;20095;-67
2023/06/02 11:32:48;;;;;;;8.02;4.30;;;;;;;26.26;46.62;98352.53;4467132;32;20149;-67
2023/06/02 11:35:20;;;;;;;8.30;3.92;;;;;;;24.76;57.00;98364.66;4460286;32;20421;-67
2023/06/02 11:38:04;;;;;;;15.38;4.28;;;;;;;23.00;67.19;98364.44;4462562;32;20815;-66
2023/06/02 11:40:34;;;;;;;16.40;4.53;;;;;;;21.97;86.78;98373.03;4467395;32;20157;-66